sensor_id;sensor_type;location;lat;lon;timestamp;temperature;humidity
8858;DHT22;4465;50.904;4.696;2024-02-16T00:01:49;13.70;99.90
8858;DHT22;4465;50.904;4.696;2024-02-16T00:04:14;13.70;99.90
8858;DHT22;4465;50.904;4.696;2024-02-16T00:06:40;13.70;99.90
8858;DHT22;4465;50.904;4.696;2024-02-16T00:09:06;13.70;99.90
8858;DHT22;4465;50.904;4.696;2024-02-16T00:11:36;13.70;99.90
8858;DHT22;4465;50.904;4.696;2024-02-16T00:14:02;13.70;99.90
8858;DHT22;4465;50.904;4.696;2024-02-16T00:16:30;13.70;99.90
8858;DHT22;4465;50.904;4.696;2024-02-16T00:18:56;13.70;99.90
8858;DHT22;4465;50.904;4.696;2024-02-16T00:21:22;13.70;99.90
8858;DHT22;4465;50.904;4.696;2024-02-16T00:23:48;13.60;99.90
8858;DHT22;4465;50.904;4.696;2024-02-16T00:26:17;13.60;99.90
8858;DHT22;4465;50.904;4.696;2024-02-16T00:28:43;13.60;99.90
8858;DHT22;4465;50.904;4.696;2024-02-16T00:31:09;13.60;99.90
8858;DHT22;4465;50.904;4.696;2024-02-16T00:33:37;13.60;99.90
8858;DHT22;4465;50.904;4.696;2024-02-16T00:36:03;13.60;99.90
8858;DHT22;4465;50.904;4.696;2024-02-16T00:38:34;13.60;99.90
8858;DHT22;4465;50.904;4.696;2024-02-16T00:41:00;13.50;99.90
8858;DHT22;4465;50.904;4.696;2024-02-16T00:43:26;13.50;99.90
8858;DHT22;4465;50.904;4.696;2024-02-16T00:45:52;13.50;99.90
8858;DHT22;4465;50.904;4.696;2024-02-16T00:48:18;13.40;99.90
8858;DHT22;4465;50.904;4.696;2024-02-16T00:50:44;13.40;99.90
8858;DHT22;4465;50.904;4.696;2024-02-16T00:53:10;13.40;99.90
8858;DHT22;4465;50.904;4.696;2024-02-16T00:55:36;13.40;99.90
8858;DHT22;4465;50.904;4.696;2024-02-16T00:58:03;13.40;99.90
8858;DHT22;4465;50.904;4.696;2024-02-16T01:00:29;13.40;99.90
8858;DHT22;4465;50.904;4.696;2024-02-16T01:02:55;13.30;99.90
8858;DHT22;4465;50.904;4.696;2024-02-16T01:05:24;13.30;99.90
8858;DHT22;4465;50.904;4.696;2024-02-16T01:07:52;13.30;99.90
8858;DHT22;4465;50.904;4.696;2024-02-16T01:10:21;13.30;99.90
8858;DHT22;4465;50.904;4.696;2024-02-16T01:12:51;13.30;99.90
8858;DHT22;4465;50.904;4.696;2024-02-16T01:15:18;13.30;99.90
8858;DHT22;4465;50.904;4.696;2024-02-16T01:17:44;13.30;99.90
8858;DHT22;4465;50.904;4.696;2024-02-16T01:20:11;13.30;99.90
8858;DHT22;4465;50.904;4.696;2024-02-16T01:22:40;13.30;99.90
8858;DHT22;4465;50.904;4.696;2024-02-16T01:25:08;13.30;99.90
8858;DHT22;4465;50.904;4.696;2024-02-16T01:27:35;13.30;99.90
8858;DHT22;4465;50.904;4.696;2024-02-16T01:30:03;13.30;99.90
8858;DHT22;4465;50.904;4.696;2024-02-16T01:32:29;13.20;99.90
8858;DHT22;4465;50.904;4.696;2024-02-16T01:34:55;13.20;99.90
8858;DHT22;4465;50.904;4.696;2024-02-16T01:37:21;13.20;99.90
8858;DHT22;4465;50.904;4.696;2024-02-16T01:39:47;13.20;99.90
8858;DHT22;4465;50.904;4.696;2024-02-16T01:42:13;13.20;99.90
8858;DHT22;4465;50.904;4.696;2024-02-16T01:44:39;13.20;99.90
8858;DHT22;4465;50.904;4.696;2024-02-16T01:47:07;13.20;99.90
8858;DHT22;4465;50.904;4.696;2024-02-16T01:49:34;13.20;99.90
8858;DHT22;4465;50.904;4.696;2024-02-16T01:52:02;13.20;99.90
8858;DHT22;4465;50.904;4.696;2024-02-16T01:54:31;13.20;99.90
8858;DHT22;4465;50.904;4.696;2024-02-16T01:57:03;13.20;99.90
8858;DHT22;4465;50.904;4.696;2024-02-16T01:59:31;13.20;99.90
8858;DHT22;4465;50.904;4.696;2024-02-16T02:01:59;13.20;99.90
8858;DHT22;4465;50.904;4.696;2024-02-16T02:04:26;13.20;99.90
8858;DHT22;4465;50.904;4.696;2024-02-16T02:06:52;13.20;99.90
8858;DHT22;4465;50.904;4.696;2024-02-16T02:09:20;13.20;99.90
8858;DHT22;4465;50.904;4.696;2024-02-16T02:11:46;13.20;99.90
8858;DHT22;4465;50.904;4.696;2024-02-16T02:14:12;13.20;99.90
8858;DHT22;4465;50.904;4.696;2024-02-16T02:16:38;13.30;99.90
8858;DHT22;4465;50.904;4.696;2024-02-16T02:19:10;13.30;99.90
8858;DHT22;4465;50.904;4.696;2024-02-16T02:21:35;13.30;99.90
8858;DHT22;4465;50.904;4.696;2024-02-16T02:24:01;13.30;99.90
8858;DHT22;4465;50.904;4.696;2024-02-16T02:26:27;13.30;99.90
8858;DHT22;4465;50.904;4.696;2024-02-16T02:28:54;13.30;99.90
8858;DHT22;4465;50.904;4.696;2024-02-16T02:31:20;13.30;99.90
8858;DHT22;4465;50.904;4.696;2024-02-16T02:33:45;13.30;99.90
8858;DHT22;4465;50.904;4.696;2024-02-16T02:36:13;13.30;99.90
8858;DHT22;4465;50.904;4.696;2024-02-16T02:38:39;13.30;99.90
8858;DHT22;4465;50.904;4.696;2024-02-16T02:41:07;13.30;99.90
8858;DHT22;4465;50.904;4.696;2024-02-16T02:43:33;13.30;99.90
8858;DHT22;4465;50.904;4.696;2024-02-16T02:46:00;13.30;99.90
8858;DHT22;4465;50.904;4.696;2024-02-16T02:48:25;13.30;99.90
8858;DHT22;4465;50.904;4.696;2024-02-16T02:50:51;13.40;99.90
8858;DHT22;4465;50.904;4.696;2024-02-16T02:53:20;13.40;99.90
8858;DHT22;4465;50.904;4.696;2024-02-16T02:55:48;13.40;99.90
8858;DHT22;4465;50.904;4.696;2024-02-16T02:58:16;13.40;99.90
8858;DHT22;4465;50.904;4.696;2024-02-16T03:00:45;13.40;99.90
8858;DHT22;4465;50.904;4.696;2024-02-16T03:03:11;13.40;99.90
8858;DHT22;4465;50.904;4.696;2024-02-16T03:05:42;13.40;99.90
8858;DHT22;4465;50.904;4.696;2024-02-16T03:08:08;13.50;99.90
8858;DHT22;4465;50.904;4.696;2024-02-16T03:10:38;13.50;99.90
8858;DHT22;4465;50.904;4.696;2024-02-16T03:13:04;13.50;99.90
8858;DHT22;4465;50.904;4.696;2024-02-16T03:15:33;13.50;99.90
8858;DHT22;4465;50.904;4.696;2024-02-16T03:17:59;13.50;99.90
8858;DHT22;4465;50.904;4.696;2024-02-16T03:20:25;13.50;99.90
8858;DHT22;4465;50.904;4.696;2024-02-16T03:22:53;13.50;99.90
8858;DHT22;4465;50.904;4.696;2024-02-16T03:25:19;13.50;99.90
8858;DHT22;4465;50.904;4.696;2024-02-16T03:27:45;13.50;99.90
8858;DHT22;4465;50.904;4.696;2024-02-16T03:30:11;13.50;99.90
8858;DHT22;4465;50.904;4.696;2024-02-16T03:32:40;13.50;99.90
8858;DHT22;4465;50.904;4.696;2024-02-16T03:35:08;13.60;99.90
8858;DHT22;4465;50.904;4.696;2024-02-16T03:37:36;13.60;99.90
8858;DHT22;4465;50.904;4.696;2024-02-16T03:40:05;13.60;99.90
8858;DHT22;4465;50.904;4.696;2024-02-16T03:42:34;13.70;99.90
8858;DHT22;4465;50.904;4.696;2024-02-16T03:45:02;13.70;99.90
8858;DHT22;4465;50.904;4.696;2024-02-16T03:47:28;13.70;99.90
8858;DHT22;4465;50.904;4.696;2024-02-16T03:49:54;13.70;99.90
8858;DHT22;4465;50.904;4.696;2024-02-16T03:52:20;13.80;99.90
8858;DHT22;4465;50.904;4.696;2024-02-16T03:54:46;13.80;99.90
8858;DHT22;4465;50.904;4.696;2024-02-16T03:57:14;13.80;99.90
8858;DHT22;4465;50.904;4.696;2024-02-16T03:59:45;13.80;99.90
8858;DHT22;4465;50.904;4.696;2024-02-16T04:02:14;13.90;99.90
8858;DHT22;4465;50.904;4.696;2024-02-16T04:04:42;13.90;99.90
8858;DHT22;4465;50.904;4.696;2024-02-16T04:07:10;13.90;99.90
8858;DHT22;4465;50.904;4.696;2024-02-16T04:09:36;13.90;99.90
8858;DHT22;4465;50.904;4.696;2024-02-16T04:12:02;14.00;99.90
8858;DHT22;4465;50.904;4.696;2024-02-16T04:14:32;14.00;99.90
8858;DHT22;4465;50.904;4.696;2024-02-16T04:17:01;14.00;99.90
8858;DHT22;4465;50.904;4.696;2024-02-16T04:19:27;14.00;99.90
8858;DHT22;4465;50.904;4.696;2024-02-16T04:21:55;14.00;99.90
8858;DHT22;4465;50.904;4.696;2024-02-16T04:24:22;14.10;99.90
8858;DHT22;4465;50.904;4.696;2024-02-16T04:26:49;14.10;99.90
8858;DHT22;4465;50.904;4.696;2024-02-16T04:29:15;14.10;99.90
8858;DHT22;4465;50.904;4.696;2024-02-16T04:31:42;14.10;99.90
8858;DHT22;4465;50.904;4.696;2024-02-16T04:34:08;14.10;99.90
8858;DHT22;4465;50.904;4.696;2024-02-16T04:36:34;14.10;99.90
8858;DHT22;4465;50.904;4.696;2024-02-16T04:39:03;14.10;99.90
8858;DHT22;4465;50.904;4.696;2024-02-16T04:41:31;14.10;99.90
8858;DHT22;4465;50.904;4.696;2024-02-16T04:43:57;14.10;99.90
8858;DHT22;4465;50.904;4.696;2024-02-16T04:46:24;14.10;99.90
8858;DHT22;4465;50.904;4.696;2024-02-16T04:48:51;14.10;99.90
8858;DHT22;4465;50.904;4.696;2024-02-16T04:51:17;14.10;99.90
8858;DHT22;4465;50.904;4.696;2024-02-16T04:53:43;14.10;99.90
8858;DHT22;4465;50.904;4.696;2024-02-16T04:56:09;14.10;99.90
8858;DHT22;4465;50.904;4.696;2024-02-16T04:58:39;14.10;99.90
8858;DHT22;4465;50.904;4.696;2024-02-16T05:01:05;14.10;99.90
8858;DHT22;4465;50.904;4.696;2024-02-16T05:03:32;14.10;99.90
8858;DHT22;4465;50.904;4.696;2024-02-16T05:06:00;14.10;99.90
8858;DHT22;4465;50.904;4.696;2024-02-16T05:08:28;14.10;99.90
8858;DHT22;4465;50.904;4.696;2024-02-16T05:10:54;14.10;99.90
8858;DHT22;4465;50.904;4.696;2024-02-16T05:13:23;14.10;99.90
8858;DHT22;4465;50.904;4.696;2024-02-16T05:15:50;14.10;99.90
8858;DHT22;4465;50.904;4.696;2024-02-16T05:18:23;14.10;99.90
8858;DHT22;4465;50.904;4.696;2024-02-16T05:20:50;14.10;99.90
8858;DHT22;4465;50.904;4.696;2024-02-16T05:23:16;14.10;99.90
8858;DHT22;4465;50.904;4.696;2024-02-16T05:25:42;14.10;99.90
8858;DHT22;4465;50.904;4.696;2024-02-16T05:28:11;14.10;99.90
8858;DHT22;4465;50.904;4.696;2024-02-16T05:30:40;14.10;99.90
8858;DHT22;4465;50.904;4.696;2024-02-16T05:33:08;14.00;99.90
8858;DHT22;4465;50.904;4.696;2024-02-16T05:35:37;14.10;99.90
8858;DHT22;4465;50.904;4.696;2024-02-16T05:38:06;14.00;99.90
8858;DHT22;4465;50.904;4.696;2024-02-16T05:40:49;14.00;99.90
8858;DHT22;4465;50.904;4.696;2024-02-16T05:43:22;14.00;99.90
8858;DHT22;4465;50.904;4.696;2024-02-16T05:45:49;14.00;99.90
8858;DHT22;4465;50.904;4.696;2024-02-16T05:48:18;14.00;99.90
8858;DHT22;4465;50.904;4.696;2024-02-16T05:50:45;14.00;99.90
8858;DHT22;4465;50.904;4.696;2024-02-16T05:53:13;14.00;99.90
8858;DHT22;4465;50.904;4.696;2024-02-16T05:55:39;14.00;99.90
8858;DHT22;4465;50.904;4.696;2024-02-16T05:58:07;14.00;99.90
8858;DHT22;4465;50.904;4.696;2024-02-16T06:00:34;14.00;99.90
8858;DHT22;4465;50.904;4.696;2024-02-16T06:03:00;14.00;99.90
8858;DHT22;4465;50.904;4.696;2024-02-16T06:05:28;14.00;99.90
8858;DHT22;4465;50.904;4.696;2024-02-16T06:07:54;14.00;99.90
8858;DHT22;4465;50.904;4.696;2024-02-16T06:10:27;14.00;99.90
8858;DHT22;4465;50.904;4.696;2024-02-16T06:12:53;14.00;99.90
8858;DHT22;4465;50.904;4.696;2024-02-16T06:15:19;14.00;99.90
8858;DHT22;4465;50.904;4.696;2024-02-16T06:17:51;14.00;99.90
8858;DHT22;4465;50.904;4.696;2024-02-16T06:20:17;14.00;99.90
8858;DHT22;4465;50.904;4.696;2024-02-16T06:22:45;14.00;99.90
8858;DHT22;4465;50.904;4.696;2024-02-16T06:25:14;14.10;99.90
8858;DHT22;4465;50.904;4.696;2024-02-16T06:27:42;14.10;99.90
8858;DHT22;4465;50.904;4.696;2024-02-16T06:30:08;14.10;99.90
8858;DHT22;4465;50.904;4.696;2024-02-16T06:32:39;14.10;99.90
8858;DHT22;4465;50.904;4.696;2024-02-16T06:35:07;14.10;99.90
8858;DHT22;4465;50.904;4.696;2024-02-16T06:37:33;14.10;99.90
8858;DHT22;4465;50.904;4.696;2024-02-16T06:40:01;14.10;99.90
8858;DHT22;4465;50.904;4.696;2024-02-16T06:42:30;14.10;99.90
8858;DHT22;4465;50.904;4.696;2024-02-16T06:44:56;14.10;99.90
8858;DHT22;4465;50.904;4.696;2024-02-16T06:47:22;14.10;99.90
8858;DHT22;4465;50.904;4.696;2024-02-16T06:49:51;14.10;99.90
8858;DHT22;4465;50.904;4.696;2024-02-16T06:52:18;14.10;99.90
8858;DHT22;4465;50.904;4.696;2024-02-16T06:54:46;14.10;99.90
8858;DHT22;4465;50.904;4.696;2024-02-16T06:57:14;14.10;99.90
8858;DHT22;4465;50.904;4.696;2024-02-16T06:59:40;14.10;99.90
8858;DHT22;4465;50.904;4.696;2024-02-16T07:02:07;14.10;99.90
8858;DHT22;4465;50.904;4.696;2024-02-16T07:04:33;14.10;99.90
8858;DHT22;4465;50.904;4.696;2024-02-16T07:06:59;14.00;99.90
8858;DHT22;4465;50.904;4.696;2024-02-16T07:09:25;14.10;99.90
8858;DHT22;4465;50.904;4.696;2024-02-16T07:11:51;14.10;99.90
8858;DHT22;4465;50.904;4.696;2024-02-16T07:14:20;14.10;99.90
8858;DHT22;4465;50.904;4.696;2024-02-16T07:16:46;14.10;99.90
8858;DHT22;4465;50.904;4.696;2024-02-16T07:19:12;14.10;99.90
8858;DHT22;4465;50.904;4.696;2024-02-16T07:21:38;14.10;99.90
8858;DHT22;4465;50.904;4.696;2024-02-16T07:24:04;14.10;99.90
8858;DHT22;4465;50.904;4.696;2024-02-16T07:26:30;14.10;99.90
8858;DHT22;4465;50.904;4.696;2024-02-16T07:28:59;14.10;99.90
8858;DHT22;4465;50.904;4.696;2024-02-16T07:31:34;14.10;99.90
8858;DHT22;4465;50.904;4.696;2024-02-16T07:34:03;14.20;99.90
8858;DHT22;4465;50.904;4.696;2024-02-16T07:36:29;14.20;99.90
8858;DHT22;4465;50.904;4.696;2024-02-16T07:39:00;14.20;99.90
8858;DHT22;4465;50.904;4.696;2024-02-16T07:41:26;14.20;99.90
8858;DHT22;4465;50.904;4.696;2024-02-16T07:43:54;14.20;99.90
8858;DHT22;4465;50.904;4.696;2024-02-16T07:46:23;14.30;99.90
8858;DHT22;4465;50.904;4.696;2024-02-16T07:48:51;14.30;99.90
8858;DHT22;4465;50.904;4.696;2024-02-16T07:51:19;14.20;99.90
8858;DHT22;4465;50.904;4.696;2024-02-16T07:53:47;14.30;99.90
8858;DHT22;4465;50.904;4.696;2024-02-16T07:56:14;14.30;99.90
8858;DHT22;4465;50.904;4.696;2024-02-16T07:58:44;14.30;99.90
8858;DHT22;4465;50.904;4.696;2024-02-16T08:01:12;14.30;99.90
8858;DHT22;4465;50.904;4.696;2024-02-16T08:03:41;14.30;99.90
8858;DHT22;4465;50.904;4.696;2024-02-16T08:06:07;14.30;99.90
8858;DHT22;4465;50.904;4.696;2024-02-16T08:08:33;14.30;99.90
8858;DHT22;4465;50.904;4.696;2024-02-16T08:10:59;14.30;99.90
8858;DHT22;4465;50.904;4.696;2024-02-16T08:13:24;14.30;99.90
8858;DHT22;4465;50.904;4.696;2024-02-16T08:15:50;14.30;99.90
8858;DHT22;4465;50.904;4.696;2024-02-16T08:18:17;14.30;99.90
8858;DHT22;4465;50.904;4.696;2024-02-16T08:20:43;14.30;99.90
8858;DHT22;4465;50.904;4.696;2024-02-16T08:23:09;14.30;99.90
8858;DHT22;4465;50.904;4.696;2024-02-16T08:25:37;14.30;99.90
8858;DHT22;4465;50.904;4.696;2024-02-16T08:28:03;14.30;99.90
8858;DHT22;4465;50.904;4.696;2024-02-16T08:30:30;14.30;99.90
8858;DHT22;4465;50.904;4.696;2024-02-16T08:32:57;14.30;99.90
8858;DHT22;4465;50.904;4.696;2024-02-16T08:35:26;14.30;99.90
8858;DHT22;4465;50.904;4.696;2024-02-16T08:37:52;14.30;99.90
8858;DHT22;4465;50.904;4.696;2024-02-16T08:40:20;14.30;99.90
8858;DHT22;4465;50.904;4.696;2024-02-16T08:42:46;14.20;99.90
8858;DHT22;4465;50.904;4.696;2024-02-16T08:45:13;14.20;99.90
8858;DHT22;4465;50.904;4.696;2024-02-16T08:47:38;14.10;99.90
8858;DHT22;4465;50.904;4.696;2024-02-16T08:50:06;14.10;99.90
8858;DHT22;4465;50.904;4.696;2024-02-16T08:52:37;14.00;99.90
8858;DHT22;4465;50.904;4.696;2024-02-16T08:55:03;14.00;99.90
8858;DHT22;4465;50.904;4.696;2024-02-16T08:57:31;14.00;99.90
8858;DHT22;4465;50.904;4.696;2024-02-16T08:59:57;14.00;99.90
8858;DHT22;4465;50.904;4.696;2024-02-16T09:02:23;13.90;99.90
8858;DHT22;4465;50.904;4.696;2024-02-16T09:04:51;13.90;99.90
8858;DHT22;4465;50.904;4.696;2024-02-16T09:07:22;14.00;99.90
8858;DHT22;4465;50.904;4.696;2024-02-16T09:09:50;13.90;99.90
8858;DHT22;4465;50.904;4.696;2024-02-16T09:12:16;14.00;99.90
8858;DHT22;4465;50.904;4.696;2024-02-16T09:14:45;14.00;99.90
8858;DHT22;4465;50.904;4.696;2024-02-16T09:17:13;14.00;99.90
8858;DHT22;4465;50.904;4.696;2024-02-16T09:19:39;14.00;99.90
8858;DHT22;4465;50.904;4.696;2024-02-16T09:22:05;14.00;99.90
8858;DHT22;4465;50.904;4.696;2024-02-16T09:24:33;14.00;99.90
8858;DHT22;4465;50.904;4.696;2024-02-16T09:27:00;14.00;99.90
8858;DHT22;4465;50.904;4.696;2024-02-16T09:29:29;14.00;99.90
8858;DHT22;4465;50.904;4.696;2024-02-16T09:31:55;14.10;99.90
8858;DHT22;4465;50.904;4.696;2024-02-16T09:34:21;14.10;99.90
8858;DHT22;4465;50.904;4.696;2024-02-16T09:36:47;14.10;99.90
8858;DHT22;4465;50.904;4.696;2024-02-16T09:39:15;14.10;99.90
8858;DHT22;4465;50.904;4.696;2024-02-16T09:41:51;14.10;99.90
8858;DHT22;4465;50.904;4.696;2024-02-16T09:44:23;14.10;99.90
8858;DHT22;4465;50.904;4.696;2024-02-16T09:46:50;14.10;99.90
8858;DHT22;4465;50.904;4.696;2024-02-16T09:49:17;14.10;99.90
8858;DHT22;4465;50.904;4.696;2024-02-16T09:51:43;14.10;99.90
8858;DHT22;4465;50.904;4.696;2024-02-16T09:54:11;14.10;99.90
8858;DHT22;4465;50.904;4.696;2024-02-16T09:56:37;14.20;99.90
8858;DHT22;4465;50.904;4.696;2024-02-16T09:59:03;14.20;99.90
8858;DHT22;4465;50.904;4.696;2024-02-16T10:01:29;14.20;99.90
8858;DHT22;4465;50.904;4.696;2024-02-16T10:04:07;14.20;99.90
8858;DHT22;4465;50.904;4.696;2024-02-16T10:06:47;14.20;99.90
8858;DHT22;4465;50.904;4.696;2024-02-16T10:09:23;14.20;99.90
8858;DHT22;4465;50.904;4.696;2024-02-16T10:11:49;14.20;99.90
8858;DHT22;4465;50.904;4.696;2024-02-16T10:14:17;14.20;99.90
8858;DHT22;4465;50.904;4.696;2024-02-16T10:16:47;14.20;99.90
8858;DHT22;4465;50.904;4.696;2024-02-16T10:19:17;14.20;99.90
8858;DHT22;4465;50.904;4.696;2024-02-16T10:21:45;14.20;99.90
8858;DHT22;4465;50.904;4.696;2024-02-16T10:24:12;14.20;99.90
8858;DHT22;4465;50.904;4.696;2024-02-16T10:26:42;14.20;99.90
8858;DHT22;4465;50.904;4.696;2024-02-16T10:29:09;14.30;99.90
8858;DHT22;4465;50.904;4.696;2024-02-16T10:31:39;14.20;99.90
8858;DHT22;4465;50.904;4.696;2024-02-16T10:34:06;14.30;99.90
8858;DHT22;4465;50.904;4.696;2024-02-16T10:36:36;14.30;99.90
8858;DHT22;4465;50.904;4.696;2024-02-16T10:39:03;14.30;99.90
8858;DHT22;4465;50.904;4.696;2024-02-16T10:41:43;14.30;99.90
8858;DHT22;4465;50.904;4.696;2024-02-16T10:44:10;14.40;99.90
8858;DHT22;4465;50.904;4.696;2024-02-16T10:46:36;14.40;99.90
8858;DHT22;4465;50.904;4.696;2024-02-16T10:49:05;14.40;99.90
8858;DHT22;4465;50.904;4.696;2024-02-16T10:51:40;14.50;99.90
8858;DHT22;4465;50.904;4.696;2024-02-16T10:54:08;14.50;99.90
8858;DHT22;4465;50.904;4.696;2024-02-16T10:56:36;14.50;99.90
8858;DHT22;4465;50.904;4.696;2024-02-16T10:59:08;14.50;99.90
8858;DHT22;4465;50.904;4.696;2024-02-16T11:01:44;14.50;99.90
8858;DHT22;4465;50.904;4.696;2024-02-16T11:04:15;14.50;99.90
8858;DHT22;4465;50.904;4.696;2024-02-16T11:06:49;14.50;99.90
8858;DHT22;4465;50.904;4.696;2024-02-16T11:09:27;14.60;99.90
8858;DHT22;4465;50.904;4.696;2024-02-16T11:12:04;14.50;99.90
8858;DHT22;4465;50.904;4.696;2024-02-16T11:14:36;14.50;99.90
8858;DHT22;4465;50.904;4.696;2024-02-16T11:17:15;14.60;99.90
8858;DHT22;4465;50.904;4.696;2024-02-16T11:19:48;14.50;99.90
8858;DHT22;4465;50.904;4.696;2024-02-16T11:22:18;14.50;99.90
8858;DHT22;4465;50.904;4.696;2024-02-16T11:24:48;14.50;99.90
8858;DHT22;4465;50.904;4.696;2024-02-16T11:27:15;14.50;99.90
8858;DHT22;4465;50.904;4.696;2024-02-16T11:29:45;14.50;99.90
8858;DHT22;4465;50.904;4.696;2024-02-16T11:32:11;14.50;99.90
8858;DHT22;4465;50.904;4.696;2024-02-16T11:34:37;14.50;99.90
8858;DHT22;4465;50.904;4.696;2024-02-16T11:37:04;14.50;99.90
8858;DHT22;4465;50.904;4.696;2024-02-16T11:39:33;14.50;99.90
8858;DHT22;4465;50.904;4.696;2024-02-16T11:44:36;14.50;99.90
8858;DHT22;4465;50.904;4.696;2024-02-16T11:47:03;14.40;99.90
8858;DHT22;4465;50.904;4.696;2024-02-16T11:49:29;14.40;99.90
8858;DHT22;4465;50.904;4.696;2024-02-16T11:51:58;14.40;99.90
8858;DHT22;4465;50.904;4.696;2024-02-16T11:54:29;14.40;99.90
8858;DHT22;4465;50.904;4.696;2024-02-16T11:56:57;14.40;99.90
8858;DHT22;4465;50.904;4.696;2024-02-16T11:59:23;14.40;99.90
8858;DHT22;4465;50.904;4.696;2024-02-16T12:01:57;14.40;99.90
8858;DHT22;4465;50.904;4.696;2024-02-16T12:04:25;14.40;99.90
8858;DHT22;4465;50.904;4.696;2024-02-16T12:06:58;14.30;99.90
8858;DHT22;4465;50.904;4.696;2024-02-16T12:09:24;14.30;99.90
8858;DHT22;4465;50.904;4.696;2024-02-16T12:11:52;14.30;99.90
8858;DHT22;4465;50.904;4.696;2024-02-16T12:14:24;14.30;99.90
8858;DHT22;4465;50.904;4.696;2024-02-16T12:16:50;14.30;99.90
8858;DHT22;4465;50.904;4.696;2024-02-16T12:19:18;14.20;99.90
8858;DHT22;4465;50.904;4.696;2024-02-16T12:21:57;14.20;99.90
8858;DHT22;4465;50.904;4.696;2024-02-16T12:24:26;14.20;99.90
8858;DHT22;4465;50.904;4.696;2024-02-16T12:26:52;14.20;99.90
8858;DHT22;4465;50.904;4.696;2024-02-16T12:29:18;14.10;99.90
8858;DHT22;4465;50.904;4.696;2024-02-16T12:31:45;14.10;99.90
8858;DHT22;4465;50.904;4.696;2024-02-16T12:34:15;14.10;99.90
8858;DHT22;4465;50.904;4.696;2024-02-16T12:36:42;14.10;99.90
8858;DHT22;4465;50.904;4.696;2024-02-16T12:39:08;14.10;99.90
8858;DHT22;4465;50.904;4.696;2024-02-16T12:41:38;14.00;99.90
8858;DHT22;4465;50.904;4.696;2024-02-16T12:44:07;14.00;99.90
8858;DHT22;4465;50.904;4.696;2024-02-16T12:46:32;14.00;99.90
8858;DHT22;4465;50.904;4.696;2024-02-16T12:49:01;14.00;99.90
8858;DHT22;4465;50.904;4.696;2024-02-16T12:51:30;14.00;99.90
8858;DHT22;4465;50.904;4.696;2024-02-16T12:53:56;14.00;99.90
8858;DHT22;4465;50.904;4.696;2024-02-16T12:56:22;13.90;99.90
8858;DHT22;4465;50.904;4.696;2024-02-16T12:58:48;13.90;99.90
8858;DHT22;4465;50.904;4.696;2024-02-16T13:01:14;13.90;99.90
8858;DHT22;4465;50.904;4.696;2024-02-16T13:03:40;13.90;99.90
8858;DHT22;4465;50.904;4.696;2024-02-16T13:06:06;13.80;99.90
8858;DHT22;4465;50.904;4.696;2024-02-16T13:08:34;13.80;99.90
8858;DHT22;4465;50.904;4.696;2024-02-16T13:11:00;13.80;99.90
8858;DHT22;4465;50.904;4.696;2024-02-16T13:13:28;13.80;99.90
8858;DHT22;4465;50.904;4.696;2024-02-16T13:15:56;13.80;99.90
8858;DHT22;4465;50.904;4.696;2024-02-16T13:18:24;13.70;99.90
8858;DHT22;4465;50.904;4.696;2024-02-16T13:20:53;13.70;99.90
8858;DHT22;4465;50.904;4.696;2024-02-16T13:23:21;13.70;99.90
8858;DHT22;4465;50.904;4.696;2024-02-16T13:25:47;13.70;99.90
8858;DHT22;4465;50.904;4.696;2024-02-16T13:28:15;13.70;99.90
8858;DHT22;4465;50.904;4.696;2024-02-16T13:30:42;13.60;99.90
8858;DHT22;4465;50.904;4.696;2024-02-16T13:33:09;13.60;99.90
8858;DHT22;4465;50.904;4.696;2024-02-16T13:35:38;13.60;99.90
8858;DHT22;4465;50.904;4.696;2024-02-16T13:38:04;13.60;99.90
8858;DHT22;4465;50.904;4.696;2024-02-16T13:40:30;13.60;99.90
8858;DHT22;4465;50.904;4.696;2024-02-16T13:42:58;13.60;99.90
8858;DHT22;4465;50.904;4.696;2024-02-16T13:45:52;13.60;99.90
8858;DHT22;4465;50.904;4.696;2024-02-16T13:48:25;13.60;99.90
8858;DHT22;4465;50.904;4.696;2024-02-16T13:50:53;13.60;99.90
8858;DHT22;4465;50.904;4.696;2024-02-16T13:53:21;13.50;99.90
8858;DHT22;4465;50.904;4.696;2024-02-16T13:55:50;13.50;99.90
8858;DHT22;4465;50.904;4.696;2024-02-16T13:58:16;13.60;99.90
8858;DHT22;4465;50.904;4.696;2024-02-16T14:00:42;13.60;99.90
8858;DHT22;4465;50.904;4.696;2024-02-16T14:03:10;13.60;99.90
8858;DHT22;4465;50.904;4.696;2024-02-16T14:05:39;13.60;99.90
8858;DHT22;4465;50.904;4.696;2024-02-16T14:08:07;13.60;99.90
8858;DHT22;4465;50.904;4.696;2024-02-16T14:10:39;13.60;99.90
8858;DHT22;4465;50.904;4.696;2024-02-16T14:13:10;13.60;99.90
8858;DHT22;4465;50.904;4.696;2024-02-16T14:15:36;13.60;99.90
8858;DHT22;4465;50.904;4.696;2024-02-16T14:18:02;13.70;99.90
8858;DHT22;4465;50.904;4.696;2024-02-16T14:20:32;13.70;99.90
8858;DHT22;4465;50.904;4.696;2024-02-16T14:23:01;13.70;99.90
8858;DHT22;4465;50.904;4.696;2024-02-16T14:25:32;13.80;99.90
8858;DHT22;4465;50.904;4.696;2024-02-16T14:28:00;13.80;99.90
8858;DHT22;4465;50.904;4.696;2024-02-16T14:30:26;13.80;99.90
8858;DHT22;4465;50.904;4.696;2024-02-16T14:32:52;13.80;99.90
8858;DHT22;4465;50.904;4.696;2024-02-16T14:35:22;13.80;99.90
8858;DHT22;4465;50.904;4.696;2024-02-16T14:37:49;13.80;99.90
8858;DHT22;4465;50.904;4.696;2024-02-16T14:40:15;13.80;99.90
8858;DHT22;4465;50.904;4.696;2024-02-16T14:42:43;13.90;99.90
8858;DHT22;4465;50.904;4.696;2024-02-16T14:45:10;13.90;99.90
8858;DHT22;4465;50.904;4.696;2024-02-16T14:47:47;13.90;99.90
8858;DHT22;4465;50.904;4.696;2024-02-16T14:50:16;13.90;99.90
8858;DHT22;4465;50.904;4.696;2024-02-16T14:52:42;13.90;99.90
8858;DHT22;4465;50.904;4.696;2024-02-16T14:55:13;13.90;99.90
8858;DHT22;4465;50.904;4.696;2024-02-16T14:57:40;13.90;99.90
8858;DHT22;4465;50.904;4.696;2024-02-16T15:00:07;13.80;99.90
8858;DHT22;4465;50.904;4.696;2024-02-16T15:02:36;13.80;99.90
8858;DHT22;4465;50.904;4.696;2024-02-16T15:05:09;13.80;99.90
8858;DHT22;4465;50.904;4.696;2024-02-16T15:07:35;13.80;99.90
8858;DHT22;4465;50.904;4.696;2024-02-16T15:10:02;13.80;99.90
8858;DHT22;4465;50.904;4.696;2024-02-16T15:12:28;13.80;99.90
8858;DHT22;4465;50.904;4.696;2024-02-16T15:14:54;13.80;99.90
8858;DHT22;4465;50.904;4.696;2024-02-16T15:17:20;13.80;99.90
8858;DHT22;4465;50.904;4.696;2024-02-16T15:19:49;13.80;99.90
8858;DHT22;4465;50.904;4.696;2024-02-16T15:22:16;13.80;99.90
8858;DHT22;4465;50.904;4.696;2024-02-16T15:24:42;13.80;99.90
8858;DHT22;4465;50.904;4.696;2024-02-16T15:27:10;13.80;99.90
8858;DHT22;4465;50.904;4.696;2024-02-16T15:29:39;13.80;99.90
8858;DHT22;4465;50.904;4.696;2024-02-16T15:32:07;13.70;99.90
8858;DHT22;4465;50.904;4.696;2024-02-16T15:34:36;13.70;99.90
8858;DHT22;4465;50.904;4.696;2024-02-16T15:37:02;13.70;99.90
8858;DHT22;4465;50.904;4.696;2024-02-16T15:39:31;13.80;99.90
8858;DHT22;4465;50.904;4.696;2024-02-16T15:41:57;13.80;99.90
8858;DHT22;4465;50.904;4.696;2024-02-16T15:44:23;13.80;99.90
8858;DHT22;4465;50.904;4.696;2024-02-16T15:46:49;13.80;99.90
8858;DHT22;4465;50.904;4.696;2024-02-16T15:49:15;13.80;99.90
8858;DHT22;4465;50.904;4.696;2024-02-16T15:51:44;13.80;99.90
8858;DHT22;4465;50.904;4.696;2024-02-16T15:54:12;13.80;99.90
8858;DHT22;4465;50.904;4.696;2024-02-16T15:56:40;13.80;99.90
8858;DHT22;4465;50.904;4.696;2024-02-16T15:59:09;13.70;99.90
8858;DHT22;4465;50.904;4.696;2024-02-16T16:01:35;13.70;99.90
8858;DHT22;4465;50.904;4.696;2024-02-16T16:04:01;13.70;99.90
8858;DHT22;4465;50.904;4.696;2024-02-16T16:06:29;13.70;99.90
8858;DHT22;4465;50.904;4.696;2024-02-16T16:08:55;13.70;99.90